• Join FlightAware (Why Join?)
  • Login
  • US Flag 
05:26PM EDT


 

Airport Tracker/Info


-or-


 

Live Flight TrackerFlight Track Log ✈ SWA1096 ✈ 26-Apr-2013 ✈ KBWI - KMHT

Flight Track Log - Related Links

Times and Time Zones

All times are in EDT time to prevent confusion due to time zone crossing. See the SWA1096 flight status page for this flight to view local times or setup timezone preferences in your user account.

Time Position Orientation Groundspeed Altitude Reporting Facility
EDT Latitude Longitude Course Direction KTS MPH feet Rate Location/Type
04:26PM 39.1833 -76.7000 247° West 154 177 1,600  Level Potomac TRACON
04:27PM 39.1667 -76.7500 247° West 203 234 3,400 1,680 Climbing Potomac TRACON
04:28PM 39.1167 -76.7000 142° Southeast 277 319 5,000 1,260 Climbing Potomac TRACON
04:29PM 39.1167 -76.6000 90° East 277 319 6,100 2,220 Climbing Potomac TRACON
04:31PM 39.1403 -76.3517 83° East 319 367 12,300 2,880 Climbing Washington Center
04:32PM 39.1494 -76.2125 85° East 356 410 15,700 3,060 Climbing Washington Center
04:33PM 39.1708 -76.0656 79° East 393 452 18,600 2,820 Climbing Washington Center
04:34PM 39.1900 -75.9183 80° East 413 475 21,500 2,820 Climbing Washington Center
04:35PM 39.2592 -75.7981 53° Northeast 394 453 24,200 2,460 Climbing Washington Center
04:36PM 39.3447 -75.6856 45° Northeast 419 482 26,400 2,100 Climbing Washington Center
04:37PM 39.4303 -75.5728 45° Northeast 426 490 28,500 2,100 Climbing Washington Center
04:38PM 39.5197 -75.4569 45° Northeast 439 505 30,600 2,100 Climbing Washington Center
04:39PM 39.6069 -75.3436 45° Northeast 444 511 32,800 1,140 Climbing Washington Center
04:40PM 39.6922 -75.2275 46° Northeast 439 505 33,000 60 Climbing Washington Center
04:41PM 39.7731 -75.1083 49° Northeast 439 505 33,000  Level Washington Center
04:43PM 39.9336 -74.8803 47° Northeast 452 520 33,000  Level New York Center
04:44PM 40.0256 -74.7531 47° Northeast 452 520 33,000  Level New York Center
04:45PM 40.1108 -74.6331 47° Northeast 452 520 33,000  Level New York Center
04:46PM 40.2186 -74.5847 19° North 419 482 33,000  Level New York Center
04:47PM 40.3281 -74.5525 13° North 405 466 33,000  Level New York Center
04:48PM 40.4311 -74.5256 11° North 399 459 33,000  Level New York Center
04:49PM 40.5406 -74.4906 14° North 399 459 33,000  Level New York Center
04:50PM 40.6542 -74.4583 12° North 399 459 33,000  Level New York Center
04:51PM 40.7656 -74.4233 13° North 404 465 33,000  Level New York Center
04:53PM 40.9814 -74.3619 12° North 412 474 33,000  Level Boston Center
04:54PM 41.0944 -74.3294 12° North 412 474 33,000  Level Boston Center
04:55PM 41.2056 -74.2942 13° North 412 474 33,000  Level Boston Center
04:56PM 41.3019 -74.2583 16° North 412 474 33,000  Level Boston Center
04:57PM 41.4150 -74.2228 13° North 407 468 33,000  Level Boston Center
04:58PM 41.5386 -74.1900 11° North 407 468 33,000  Level Boston Center
04:59PM 41.6475 -74.1542 14° North 412 474 33,000  Level Boston Center
05:00PM 41.7586 -74.1183 14° North 412 474 33,000 -480 Level Boston Center
05:01PM 41.8675 -74.0878 12° North 401 461 32,100 -960 Descending Boston Center
05:02PM 41.9806 -74.0517 13° North 401 461 31,100 -1,020 Descending Boston Center
05:03PM 42.0978 -74.0153 13° North 411 473 30,100 -1,020 Descending Boston Center
05:04PM 42.2106 -73.9817 12° North 416 479 29,100 -1,020 Descending Boston Center
05:05PM 42.3197 -73.9311 19° North 416 479 28,100 -1,020 Descending Boston Center
05:06PM 42.3758 -73.7864 62° Northeast 395 455 27,100 -1,020 Descending Boston Center
05:07PM 42.4169 -73.6325 70° East 400 460 26,100 -1,080 Descending Boston Center
05:08PM 42.4603 -73.4842 68° East 405 466 25,000 -1,080 Descending Boston Center
05:09PM 42.5011 -73.3300 70° East 417 480 24,000 -1,020 Descending Boston Center
05:10PM 42.5439 -73.1842 68° East 427 491 23,000 -1,080 Descending Boston Center
05:11PM 42.5864 -73.0322 69° East 427 491 21,900 -1,080 Descending Boston Center
05:12PM 42.6244 -72.8944 69° East 411 473 20,900 -1,140 Descending Boston Center
05:13PM 42.6542 -72.7450 75° East 406 467 19,700 -1,560 Descending Boston Center
05:14PM 42.6836 -72.6122 73° East 382 440 17,800 -1,620 Descending Boston Center
05:15PM 42.7089 -72.4908 74° East 371 427 16,500 -1,740 Descending Boston Center
05:16PM 42.7358 -72.3553 75° East 371 427 14,400 -2,280 Descending Boston Center
05:17PM 42.7628 -72.2111 76° East 371 427 12,000 -2,040 Descending Boston Center
05:18PM 42.7894 -72.0808 74° East 357 411 10,400 -1,440 Descending Boston Center
05:19PM 42.8456 -71.9956 48° Northeast 313 360 9,200 -1,500 Descending Boston Center
05:20PM 42.8994 -71.9131 48° Northeast 294 338 7,500 -1,800 Descending Boston Center
05:21PM 42.9531 -71.8386 45° Northeast 271 312 5,700 -1,500 Descending Boston Center
05:22PM 43.0069 -71.7672 44° Northeast 265 305 4,500 -1,320 Descending Boston Center
05:23PM 43.0272 -71.6761 73° East 245 282 3,100 -900 Descending Boston Center
05:24PM 43.0411 -71.5936 77° East 227 261 2,800 -600 Descending Boston Center
05:25PM 43.0344 -71.5225 97° East 196 226 1,900 -600 Descending Boston Center
05:26PM 43.0069 -71.4775 130° Southeast 166 191 1,700 -540 Descending Boston Center
05:27PM 42.9714 -71.4583 158° South 146 168 900 3,600 Descending Boston Center
05:28PM 42.9442 -71.4389 152° Southeast 146 168 9,000 4,020 Climbing Boston Center
05:29PM 42.9022 -71.4169 159° South 146 168 9,000  Level Boston Center
05:30PM 42.8667 -71.3978 158° South 146 168 9,000  Level Boston Center
05:32PM 42.9167 -71.4333 316° Northwest  Level FlightAware Approximate
05:39PM 42.9328 -71.4358 316° Northwest  Level Estimated
05:40PM 42.9328 -71.4358 316° Northwest  Level Estimated
05:41PM 42.9328 -71.4358 316° Northwest  Level Estimated
05:42PM 42.9328 -71.4358 316° Northwest  Level Estimated
05:43PM 42.9328 -71.4358 316° Northwest  Level Estimated
05:44PM 42.9328 -71.4358 316° Northwest  Level Estimated
05:45PM 42.9328 -71.4358 316° Northwest  Level Estimated